Impacts TAF Board INFO
FOR SITUATIONAL AWARENESS. NOT TO BE USED FOR FLIGHT PLANNING PURPOSES.
IDs:

KBHM - Birmingham Intl, AL, US

Issued at 0540 UTC 25 Feb 2018
Updated at 0554 UTC 25 Feb 2018
Potential Impact None Slight Moderate High
Time<<25/18Z 25/19Z 25/20Z 25/21Z 25/22Z 25/23Z 26/00Z 26/01Z 26/02Z 26/03Z 26/04Z 26/05Z 26/06Z>>
Type PRVL PRVL PRVL PRVL PRVL PRVL PRVL PRVL PRVL PRVL PRVL PRVL
VIS 6 6 6 6 6 6 6 6 6 6 6 6
CIG 15 15 15 15 15 15 15 15 15 15 15 15
Cover OVC OVC OVC OVC OVC OVC OVC OVC OVC OVC OVC OVC
FltCat MVFR MVFR MVFR MVFR MVFR MVFR MVFR MVFR MVFR MVFR MVFR MVFR
WX -RA -RA -RA -RA -RA -RA -RA -RA -RA -RA -RA -RA
WDir 330 330 330 330 330 330 330 330 330 330 330 330
WSpd 10 10 10 10 10 10 10 10 10 10 10 10
WGst -- -- -- -- -- -- -- -- -- -- -- --

Raw TAF
KBHM 250540Z 2506/2606 19013G21KT P6SM SCT025 SCT080
  FM250700 20012G18KT P6SM BKN025
  FM250800 20012G18KT P6SM VCSH OVC015
  FM251000 23014KT 4SM RA SCT004 OVC012
  FM251200 33010KT 6SM -RA OVC015


METAR Board
Radar Display
Forecast Discussion

FOR SITUATIONAL AWARENESS. NOT TO BE USED FOR FLIGHT PLANNING PURPOSES.